»·PEaware :: SWA4377 KSTL-KMDW

SWA4377 :: KSTL-KMDW

FLIGHT INFORMATION

Flight Status: Arrived
Operator:
Southwest Airlines
More flights by this operator :: More flights under this callsign
Pilot: Drew L. (13237)
Aircraft: BOEING 737-300
(B733)
More flights by this aircraft type
Origin: KSTL Lambert-St Louis Intl
United States
Destination: KMDW Chicago-Midway
United States
More flights between these airports :: More routes between these airports
Route: NATCA3 SPI PHEEB ENDEE4
File this flight plan on PilotEdge
Remarks: Sample flight plan
Altitude:
(Current/Filed)
27,000ft
Speed:
(Current/Filed)
115kts
Departed: 03-Jun-17 10:43 PM
Arrived: 03-Jun-17 11:26 PM
Distance/Time
Traveled:
218nm/0:43
Distance/Time
To Go:
Arrived

Flight Plot

Page will automatically refresh every two minutes.

Flight plan parsing failed; only flown route is shown


Map Options




Map Legend


Flown Route
Filed Route
Departure Airport
Arrival Airport
Navaid (VOR, NDB)
Fix

Horizontal Profiles

Position Reports

Time Latitude Longitude Heading Altitude Ground
Speed
03-Jun-17 22:34 38.737870 -90.355602 212 611ft 0kts
03-Jun-17 22:35 38.737870 -90.355602 212 611ft 0kts
03-Jun-17 22:36 38.737870 -90.355602 212 611ft 0kts
03-Jun-17 22:37 38.737870 -90.355602 212 611ft 0kts
03-Jun-17 22:38 38.737870 -90.355602 212 611ft 0kts
03-Jun-17 22:39 38.737870 -90.355602 212 611ft 0kts
03-Jun-17 22:40 38.737870 -90.355602 212 611ft 0kts
03-Jun-17 22:41 38.738280 -90.355272 212 611ft 0kts
03-Jun-17 22:42 38.738493 -90.355104 211 611ft 0kts
03-Jun-17 22:43 38.738352 -90.355081 148 611ft 4kts
03-Jun-17 22:44 38.737262 -90.350001 114 611ft 19kts
03-Jun-17 22:45 38.741608 -90.354194 302 611ft 132kts
03-Jun-17 22:46 38.780304 -90.397264 341 3094ft 220kts
03-Jun-17 22:47 38.842776 -90.413941 22 6332ft 279kts
03-Jun-17 22:48 38.911726 -90.364148 31 10096ft 301kts
03-Jun-17 22:49 38.982577 -90.302580 29 13607ft 318kts
03-Jun-17 22:50 39.056843 -90.238674 29 16834ft 332kts
03-Jun-17 22:51 39.126905 -90.178418 28 19415ft 348kts
03-Jun-17 22:52 39.208258 -90.108279 28 22170ft 360kts
03-Jun-17 22:53 39.292832 -90.035034 28 24594ft 374kts
03-Jun-17 22:54 39.381772 -89.961865 25 26814ft 385kts
03-Jun-17 22:55 39.480107 -89.886401 26 26987ft 446kts
03-Jun-17 22:56 39.589111 -89.802244 26 27024ft 461kts
03-Jun-17 22:57 39.698220 -89.717790 26 27022ft 460kts
03-Jun-17 22:58 39.808230 -89.632331 26 27022ft 460kts
03-Jun-17 22:59 39.917330 -89.547259 26 27022ft 460kts
03-Jun-17 23:00 40.026510 -89.461805 26 27023ft 460kts
03-Jun-17 23:01 40.134944 -89.376718 26 27021ft 461kts
03-Jun-17 23:02 40.220816 -89.308917 26 27020ft 460kts
03-Jun-17 23:03 40.326651 -89.213368 32 26326ft 467kts
03-Jun-17 23:04 40.431463 -89.121097 20 23730ft 442kts
03-Jun-17 23:05 40.539399 -89.052942 21 20746ft 423kts
03-Jun-17 23:06 40.642039 -88.986879 21 17467ft 404kts
03-Jun-17 23:07 40.740508 -88.923266 22 14310ft 389kts
03-Jun-17 23:08 40.835172 -88.861910 22 11398ft 374kts
03-Jun-17 23:09 40.926442 -88.802180 22 10016ft 364kts
03-Jun-17 23:10 41.017072 -88.743137 22 9990ft 366kts
03-Jun-17 23:11 41.106275 -88.684930 22 9951ft 365kts
03-Jun-17 23:12 41.188845 -88.630856 22 9976ft 303kts
03-Jun-17 23:13 41.263060 -88.582182 21 9933ft 298kts
03-Jun-17 23:14 41.337266 -88.533511 22 8887ft 294kts
03-Jun-17 23:15 41.398637 -88.469180 47 7996ft 285kts
03-Jun-17 23:16 41.447741 -88.388268 47 7035ft 276kts
03-Jun-17 23:17 41.495011 -88.310306 48 6479ft 273kts
03-Jun-17 23:18 41.528610 -88.223994 64 5941ft 259kts
03-Jun-17 23:19 41.555537 -88.141251 63 5539ft 227kts
03-Jun-17 23:20 41.580403 -88.064805 63 4979ft 206kts
03-Jun-17 23:21 41.600078 -88.004393 62 5135ft 164kts
03-Jun-17 23:22 41.622937 -87.956372 37 4943ft 152kts
03-Jun-17 23:23 41.654110 -87.917241 37 4621ft 155kts
03-Jun-17 23:24 41.684697 -87.879560 41 3595ft 150kts
03-Jun-17 23:25 41.714671 -87.841247 45 2665ft 148kts
03-Jun-17 23:26 41.744169 -87.803592 44 1759ft 146kts
03-Jun-17 23:27 41.773044 -87.767078 44 888ft 140kts
03-Jun-17 23:28 41.790382 -87.745040 50 627ft 10kts
03-Jun-17 23:29 41.789053 -87.745186 222 627ft 14kts
03-Jun-17 23:30 41.785239 -87.746654 133 627ft 21kts
03-Jun-17 23:31 41.784744 -87.742813 303 627ft 3kts
03-Jun-17 23:32 41.784788 -87.742906 301 627ft 0kts
03-Jun-17 23:33 41.784788 -87.742906 301 627ft 0kts
03-Jun-17 23:34 41.784788 -87.742906 301 627ft 0kts
03-Jun-17 23:35 41.784788 -87.742906 301 627ft 0kts
03-Jun-17 23:36 41.784788 -87.742906 301 627ft 0kts
03-Jun-17 23:37 41.784788 -87.742906 301 627ft 0kts
03-Jun-17 23:38 41.784788 -87.742906 301 627ft 0kts
03-Jun-17 23:39 41.784788 -87.742906 301 627ft 0kts
03-Jun-17 23:40 41.784788 -87.742906 301 627ft 0kts
03-Jun-17 23:41 41.784788 -87.742906 301 627ft 0kts
03-Jun-17 23:42 41.784788 -87.742906 301 627ft 0kts

Navigation Log

Ident Type
Flight plan parsing failed, navigation log unavailable